createdAt,value
2023-01-04T00:01:23.301Z,101478.84
2023-01-04T00:03:55.248Z,101455.34
2023-01-04T00:06:27.280Z,101454.75
2023-01-04T00:08:59.247Z,101469.09
2023-01-04T00:11:31.277Z,101449.75
2023-01-04T00:14:03.379Z,101464.97
2023-01-04T00:16:35.536Z,101463.19
2023-01-04T00:19:07.547Z,101473.34
2023-01-04T00:21:39.684Z,101415.06
2023-01-04T00:24:11.758Z,101442.09
2023-01-04T00:26:43.798Z,101458.88
2023-01-04T00:29:15.824Z,101453.81
2023-01-04T00:31:47.848Z,101453.38
2023-01-04T00:34:20.131Z,101446.59
2023-01-04T00:36:52.074Z,101466.06
2023-01-04T00:39:24.103Z,101472.13
2023-01-04T00:42:05.402Z,101418.78
2023-01-04T00:44:37.505Z,101436.72
2023-01-04T00:47:09.507Z,101483.47
2023-01-04T00:49:41.425Z,101459.78
2023-01-04T00:52:13.421Z,101464.91
2023-01-04T00:54:45.379Z,101475.22
2023-01-04T00:57:17.528Z,101481.44
2023-01-04T00:59:49.447Z,101476.03
2023-01-04T01:02:21.436Z,101457.47
2023-01-04T01:04:53.517Z,101474.41
2023-01-04T01:07:25.447Z,101480.41
2023-01-04T01:09:57.391Z,101487.16
2023-01-04T01:12:30.328Z,101484.66
2023-01-04T01:15:02.523Z,101512.03
2023-01-04T01:17:35.183Z,101523.84
2023-01-04T01:20:07.647Z,101518.75
2023-01-04T01:22:39.558Z,101508.84
2023-01-04T01:25:11.460Z,101511.28
2023-01-04T01:27:43.443Z,101492.53
2023-01-04T01:30:15.393Z,101487.41
2023-01-04T01:32:47.337Z,101478.03
2023-01-04T01:35:19.334Z,101494.97
2023-01-04T01:37:51.230Z,101476.28
2023-01-04T01:40:23.183Z,101493.38
2023-01-04T01:42:55.607Z,101493.44
2023-01-04T01:45:34.677Z,101492.56
2023-01-04T01:48:22.494Z,101492.75
2023-01-04T01:50:59.524Z,101482.53
2023-01-04T01:53:36.063Z,101486.56
2023-01-04T01:56:11.094Z,101500.13
2023-01-04T01:58:46.573Z,101460.25
2023-01-04T02:01:19.012Z,101474.72
2023-01-04T02:03:51.113Z,101472.03
2023-01-04T02:06:29.894Z,101477.13
2023-01-04T02:09:02.941Z,101452.47
2023-01-04T02:11:34.918Z,101451.84
2023-01-04T02:14:28.276Z,101458.72
2023-01-04T02:17:12.168Z,101474.03
2023-01-04T02:20:08.856Z,101475.06
2023-01-04T02:23:04.967Z,101476.75
2023-01-04T02:25:58.805Z,101480.97
2023-01-04T02:28:36.688Z,101483.69
2023-01-04T02:31:11.680Z,101476.88
2023-01-04T02:34:02.341Z,101475.19
2023-01-04T02:36:42.316Z,101465.03
2023-01-04T02:39:23.115Z,101479.47
2023-01-04T02:42:01.486Z,101470.88
2023-01-04T02:44:54.849Z,101459.06
2023-01-04T02:47:53.439Z,101467.53
2023-01-04T02:50:40.186Z,101461.63
2023-01-04T02:53:22.871Z,101457.47
2023-01-04T02:56:09.726Z,101460.19
2023-01-04T02:59:18.707Z,101458.47
2023-01-04T03:02:15.385Z,101455.00
2023-01-04T03:05:15.072Z,101448.25
2023-01-04T03:08:34.561Z,101449.94
2023-01-04T03:11:30.904Z,101455.06
2023-01-04T03:14:30.931Z,101449.09
2023-01-04T03:17:10.306Z,101430.50
2023-01-04T03:19:52.224Z,101436.53
2023-01-04T03:22:56.221Z,101443.28
2023-01-04T03:26:10.055Z,101451.72
2023-01-04T03:29:01.789Z,101450.03
2023-01-04T03:31:59.454Z,101438.25
2023-01-04T03:34:50.046Z,101422.06
2023-01-04T03:37:38.315Z,101418.59
2023-01-04T03:40:39.575Z,101420.28
2023-01-04T03:43:42.392Z,101404.16
2023-01-04T03:46:52.959Z,101403.31
2023-01-04T03:49:39.897Z,101417.81
2023-01-04T03:52:14.549Z,101417.78
2023-01-04T03:54:49.465Z,101411.84
2023-01-04T03:57:23.463Z,101415.28
2023-01-04T04:00:09.882Z,101404.31
2023-01-04T04:02:42.007Z,101415.31
2023-01-04T04:05:39.608Z,101411.03
2023-01-04T04:08:29.559Z,101400.97
2023-01-04T04:11:23.401Z,101410.22
2023-01-04T04:13:55.341Z,101393.31
2023-01-04T04:16:28.232Z,101388.28
2023-01-04T04:19:06.395Z,101392.50
2023-01-04T04:21:40.393Z,101386.56
2023-01-04T04:24:18.638Z,101394.19
2023-01-04T04:26:51.663Z,101403.63
2023-01-04T04:29:24.666Z,101395.06
2023-01-04T04:31:56.596Z,101379.06
2023-01-04T04:34:28.614Z,101387.47
2023-01-04T04:37:00.540Z,101376.41
2023-01-04T04:39:32.806Z,101377.28
2023-01-04T04:42:04.805Z,101372.16
2023-01-04T04:44:36.754Z,101376.47
2023-01-04T04:47:08.676Z,101378.22
2023-01-04T04:49:40.535Z,101362.94
2023-01-04T04:52:12.417Z,101364.63
2023-01-04T04:54:44.261Z,101348.59
2023-01-04T04:57:16.220Z,101351.94
2023-01-04T04:59:48.157Z,101374.00
2023-01-04T05:02:20.218Z,101379.06
2023-01-04T05:04:52.318Z,101336.72
2023-01-04T05:07:24.274Z,101330.84
2023-01-04T05:09:56.217Z,101375.69
2023-01-04T05:12:46.736Z,101355.38
2023-01-04T05:15:18.992Z,101382.47
2023-01-04T05:17:50.920Z,101361.28
2023-01-04T05:20:22.946Z,101357.88
2023-01-04T05:22:54.876Z,101380.72
2023-01-04T05:25:27.046Z,101372.25
2023-01-04T05:27:59.172Z,101384.09
2023-01-04T05:30:49.729Z,101377.34
2023-01-04T05:33:22.826Z,101367.22
2023-01-04T05:35:56.353Z,101379.06
2023-01-04T05:38:28.510Z,101378.19
2023-01-04T05:41:00.436Z,101338.38
2023-01-04T05:43:32.390Z,101353.66
2023-01-04T05:46:04.434Z,101315.50
2023-01-04T05:48:36.627Z,101295.19
2023-01-04T05:51:08.463Z,101319.75
2023-01-04T05:53:40.674Z,101349.41
2023-01-04T05:56:12.612Z,101337.50
2023-01-04T05:58:44.572Z,101340.94
2023-01-04T06:01:16.677Z,101340.91
2023-01-04T06:03:48.747Z,101327.28
2023-01-04T06:06:20.954Z,101338.34
2023-01-04T06:08:52.893Z,101317.22
2023-01-04T06:11:27.781Z,101332.38
2023-01-04T06:13:59.988Z,101320.50
2023-01-04T06:16:31.974Z,101308.66
2023-01-04T06:19:04.129Z,101328.13
2023-01-04T06:21:35.999Z,101295.88
2023-01-04T06:24:07.893Z,101318.75
2023-01-04T06:26:39.802Z,101320.47
2023-01-04T06:29:11.780Z,101306.03
2023-01-04T06:31:43.941Z,101314.53
2023-01-04T06:34:15.850Z,101290.75
2023-01-04T06:36:47.904Z,101268.78
2023-01-04T06:39:19.856Z,101296.72
2023-01-04T06:41:51.772Z,101288.25
2023-01-04T06:44:23.643Z,101250.97
2023-01-04T06:46:55.505Z,101268.66
2023-01-04T06:49:27.410Z,101242.38
2023-01-04T06:51:59.283Z,101270.34
2023-01-04T06:54:32.935Z,101246.66
2023-01-04T06:57:04.930Z,101257.56
2023-01-04T06:59:36.888Z,101272.78
2023-01-04T07:02:10.595Z,101254.09
2023-01-04T07:04:43.700Z,101289.72
2023-01-04T07:07:15.728Z,101282.94
2023-01-04T07:09:47.728Z,101272.81
2023-01-04T07:12:19.697Z,101279.56
2023-01-04T07:14:51.904Z,101291.44
2023-01-04T07:17:29.751Z,101312.63
2023-01-04T07:20:02.180Z,101256.69
2023-01-04T07:22:34.092Z,101290.56
2023-01-04T07:25:06.340Z,101326.13
2023-01-04T07:27:38.304Z,101285.41
2023-01-04T07:30:11.289Z,101332.88
2023-01-04T07:32:43.144Z,101314.91
2023-01-04T07:35:15.269Z,101327.63
2023-01-04T07:37:50.891Z,101303.88
2023-01-04T07:40:26.645Z,101288.56
2023-01-04T07:42:59.870Z,101284.28
2023-01-04T07:45:31.868Z,101297.75
2023-01-04T07:48:03.976Z,101285.81
2023-01-04T07:50:37.269Z,101285.69
2023-01-04T07:53:09.206Z,101284.78
2023-01-04T07:55:41.138Z,101274.50
2023-01-04T07:58:13.043Z,101266.00
2023-01-04T08:00:44.987Z,101278.59
2023-01-04T08:03:16.984Z,101288.69
2023-01-04T08:05:48.974Z,101286.94
2023-01-04T08:08:20.824Z,101276.72
2023-01-04T08:10:52.676Z,101252.03
2023-01-04T08:13:24.617Z,101240.06
2023-01-04T08:15:56.759Z,101251.75
2023-01-04T08:18:28.914Z,101244.88
2023-01-04T08:21:06.392Z,101262.47
2023-01-04T08:23:38.517Z,101254.81
2023-01-04T08:26:13.060Z,101266.53
2023-01-04T08:28:45.327Z,101219.88
2023-01-04T08:31:22.758Z,101223.00
2023-01-04T08:33:55.460Z,101232.16
2023-01-04T08:36:32.658Z,101209.94
2023-01-04T08:39:06.893Z,101235.41
2023-01-04T08:42:04.280Z,101226.66
2023-01-04T08:44:39.672Z,101234.31
2023-01-04T08:47:11.660Z,101198.56
2023-01-04T08:49:43.652Z,101204.31
2023-01-04T08:52:16.281Z,101196.53
2023-01-04T08:54:49.467Z,101186.34
2023-01-04T08:57:21.392Z,101182.75
2023-01-04T08:59:53.295Z,101198.03
2023-01-04T09:02:28.037Z,101188.69
2023-01-04T09:05:02.695Z,101183.63
2023-01-04T09:07:34.762Z,101191.06
2023-01-04T09:10:07.189Z,101194.31
2023-01-04T09:12:39.144Z,101175.69
2023-01-04T09:15:11.321Z,101185.81
2023-01-04T09:18:05.227Z,101182.25
2023-01-04T09:20:35.508Z,101175.16
2023-01-04T09:23:07.437Z,101173.34
2023-01-04T09:25:40.469Z,101176.56
2023-01-04T09:28:12.564Z,101164.03
2023-01-04T09:30:44.496Z,101155.91
2023-01-04T09:33:16.450Z,101149.13
2023-01-04T09:35:48.497Z,101152.66
2023-01-04T09:38:20.485Z,101122.75
2023-01-04T09:41:01.795Z,101136.06
2023-01-04T09:43:52.101Z,101128.19
2023-01-04T09:46:36.039Z,101121.66
2023-01-04T09:49:24.860Z,101117.06
2023-01-04T09:52:13.580Z,101108.47
2023-01-04T09:55:38.173Z,101094.53
2023-01-04T09:58:08.488Z,101102.00
2023-01-04T10:00:45.323Z,101100.00
2023-01-04T10:03:25.792Z,101071.94
2023-01-04T10:05:59.379Z,101030.50
2023-01-04T10:08:31.844Z,101068.94
2023-01-04T10:11:28.431Z,101066.78
2023-01-04T10:14:13.968Z,101060.13
2023-01-04T10:22:52.965Z,101046.22
2023-01-04T10:25:34.789Z,101044.22
2023-01-04T10:28:39.835Z,101043.31
2023-01-04T10:31:40.831Z,101046.56
2023-01-04T10:34:21.431Z,100982.66
2023-01-04T10:37:15.860Z,101029.44
2023-01-04T10:39:52.759Z,101019.13
2023-01-04T10:42:35.307Z,100991.28
2023-01-04T10:45:22.627Z,101004.13
2023-01-04T10:48:25.342Z,100979.94
2023-01-04T10:51:00.997Z,100993.22
2023-01-04T10:53:44.928Z,100977.06
2023-01-04T10:56:36.961Z,100965.00
2023-01-04T10:59:16.756Z,100950.84
2023-01-04T11:02:18.765Z,100925.44
2023-01-04T11:05:13.789Z,100918.03
2023-01-04T11:07:54.361Z,100910.06
2023-01-04T11:10:45.008Z,100904.69
2023-01-04T11:13:17.243Z,100898.31
2023-01-04T11:15:49.406Z,100885.44
2023-01-04T11:18:21.696Z,100870.44
2023-01-04T11:20:53.831Z,100851.16
2023-01-04T11:23:26.047Z,100856.59
2023-01-04T11:26:01.323Z,100856.34
2023-01-04T11:28:48.798Z,100850.66
2023-01-04T11:31:36.487Z,100851.09
2023-01-04T11:34:08.390Z,100838.16
2023-01-04T11:36:45.669Z,100827.72
2023-01-04T11:39:23.686Z,100830.28
2023-01-04T11:42:04.847Z,100830.16
2023-01-04T11:44:36.967Z,100811.53
2023-01-04T11:47:20.850Z,100804.72
2023-01-04T11:49:53.261Z,100796.25
2023-01-04T11:52:29.537Z,100800.34
2023-01-04T11:55:17.301Z,100775.50
2023-01-04T11:58:06.683Z,100745.97
2023-01-04T12:00:49.793Z,100746.63
2023-01-04T12:03:29.704Z,100751.25
2023-01-04T12:06:01.687Z,100742.88
2023-01-04T12:08:36.118Z,100726.03
2023-01-04T12:11:25.636Z,100711.41
2023-01-04T12:14:00.034Z,100700.25
2023-01-04T12:16:38.754Z,100694.78
2023-01-04T12:19:18.332Z,100659.78
2023-01-04T12:21:53.834Z,100690.47
2023-01-04T12:24:30.261Z,100679.28
2023-01-04T12:27:02.581Z,100638.22
2023-01-04T12:29:55.077Z,100653.47
2023-01-04T12:32:27.004Z,100643.13
2023-01-04T12:34:59.057Z,100620.41
2023-01-04T12:37:46.324Z,100641.13
2023-01-04T12:40:47.516Z,100620.34
2023-01-04T12:43:27.050Z,100621.94
2023-01-04T12:46:47.079Z,100595.25
2023-01-04T12:49:28.171Z,100609.03
2023-01-04T12:55:03.302Z,100608.97
2023-01-04T12:57:38.326Z,100598.59
2023-01-04T13:00:14.209Z,100593.69
2023-01-04T13:02:48.572Z,100590.50
2023-01-04T13:05:55.514Z,100579.16
2023-01-04T13:08:15.403Z,100567.25
2023-01-04T13:10:51.874Z,100569.25
2023-01-04T13:13:39.007Z,100555.25
2023-01-04T13:16:28.375Z,100528.16
2023-01-04T13:19:03.322Z,100532.78
2023-01-04T13:21:42.699Z,100536.31
2023-01-04T13:24:34.561Z,100525.19
2023-01-04T13:27:08.767Z,100519.84
2023-01-04T13:29:42.055Z,100511.06
2023-01-04T13:32:22.062Z,100498.41
2023-01-04T13:34:55.890Z,100504.41
2023-01-04T13:37:33.577Z,100499.88
2023-01-04T13:40:29.068Z,100491.72
2023-01-04T13:43:16.172Z,100496.44
2023-01-04T13:46:18.592Z,100480.25
2023-01-04T13:48:54.130Z,100471.28
2023-01-04T13:51:36.354Z,100479.28
2023-01-04T13:54:22.789Z,100469.81
2023-01-04T13:57:09.072Z,100428.00
2023-01-04T13:59:41.031Z,100432.88
2023-01-04T14:02:18.441Z,100452.84
2023-01-04T14:04:51.588Z,100452.84
2023-01-04T14:07:25.101Z,100438.22
2023-01-04T14:10:00.373Z,100417.22
2023-01-04T14:12:32.350Z,100402.84
2023-01-04T14:15:25.283Z,100401.72
2023-01-04T14:17:57.824Z,100414.25
2023-01-04T14:20:33.095Z,100405.69
2023-01-04T14:23:05.700Z,100375.44
2023-01-04T14:25:49.400Z,100387.69
2023-01-04T14:28:29.893Z,100377.44
2023-01-04T14:31:02.704Z,100377.44
2023-01-04T14:33:44.024Z,100358.94
2023-01-04T14:36:23.215Z,100357.16
2023-01-04T14:39:10.296Z,100331.97
2023-01-04T14:41:55.134Z,100325.06
2023-01-04T14:44:31.174Z,100329.66
2023-01-04T14:47:07.616Z,100297.63
2023-01-04T14:49:39.734Z,100324.22
2023-01-04T14:52:20.482Z,100303.47
2023-01-04T14:54:52.672Z,100316.16
2023-01-04T14:57:24.685Z,100318.47
2023-01-04T14:59:57.129Z,100322.00
2023-01-04T15:02:30.752Z,100314.38
2023-01-04T15:05:02.949Z,100296.56
2023-01-04T15:07:38.479Z,100299.06
2023-01-04T15:10:26.223Z,100280.69
2023-01-04T15:13:00.928Z,100274.19
2023-01-04T15:15:35.980Z,100272.44
2023-01-04T15:18:08.745Z,100261.22
2023-01-04T15:20:40.949Z,100238.81
2023-01-04T15:23:14.237Z,100214.81
2023-01-04T15:25:46.227Z,100213.97
2023-01-04T15:28:21.875Z,100214.34
2023-01-04T15:30:54.364Z,100222.31
2023-01-04T15:33:32.408Z,100191.28
2023-01-04T15:36:23.277Z,100204.78
2023-01-04T15:38:55.951Z,100162.94
2023-01-04T15:41:46.363Z,100165.53
2023-01-04T15:44:18.359Z,100182.63
2023-01-04T15:46:51.614Z,100174.16
2023-01-04T15:49:23.842Z,100137.22
2023-01-04T15:51:55.851Z,100163.13
2023-01-04T15:54:28.918Z,100174.00
2023-01-04T15:57:00.857Z,100162.91
2023-01-04T15:59:32.832Z,100147.69
2023-01-04T16:02:04.913Z,100121.28
2023-01-04T16:04:38.035Z,100129.53
2023-01-04T16:07:09.986Z,100122.34
2023-01-04T16:09:42.003Z,100117.22
2023-01-04T16:12:32.698Z,100109.50
2023-01-04T16:15:05.065Z,100109.25
2023-01-04T16:17:37.084Z,100112.50
2023-01-04T16:20:10.081Z,100089.97
2023-01-04T16:22:42.652Z,100101.31
2023-01-04T16:25:17.393Z,100083.84
2023-01-04T16:27:49.277Z,100070.38
2023-01-04T16:30:27.791Z,100035.97
2023-01-04T16:33:01.870Z,100060.16
2023-01-04T16:35:33.821Z,100073.84
2023-01-04T16:38:05.677Z,100063.28
2023-01-04T16:40:37.672Z,100051.41
2023-01-04T16:43:10.036Z,100045.41
2023-01-04T16:45:41.967Z,100052.97
2023-01-04T16:48:18.410Z,100045.69
2023-01-04T16:50:50.771Z,100018.00
2023-01-04T16:53:22.691Z,100006.13
2023-01-04T16:55:54.652Z,99994.56
2023-01-04T16:58:26.493Z,99997.13
2023-01-04T17:01:07.169Z,99999.00
2023-01-04T17:03:39.298Z,99994.34
2023-01-04T17:06:15.917Z,99985.81
2023-01-04T17:08:50.340Z,99958.13
2023-01-04T17:12:11.528Z,99951.31
2023-01-04T17:14:19.902Z,99950.19
2023-01-04T17:16:53.093Z,99949.59
2023-01-04T17:19:25.269Z,99963.47
2023-01-04T17:21:57.272Z,99940.31
2023-01-04T17:24:29.245Z,99936.94
2023-01-04T17:27:01.252Z,99953.97
2023-01-04T17:29:33.285Z,99952.25
2023-01-04T17:32:05.501Z,99944.38
2023-01-04T17:34:37.487Z,99920.81
2023-01-04T17:37:09.344Z,99898.28
2023-01-04T17:39:41.176Z,99899.63
2023-01-04T17:42:14.166Z,99893.38
2023-01-04T17:44:49.623Z,99883.84
2023-01-04T17:47:21.635Z,99874.91
2023-01-04T17:49:53.496Z,99870.34
2023-01-04T17:52:31.029Z,99840.03
2023-01-04T17:55:04.203Z,99876.41
2023-01-04T17:57:36.207Z,99865.03
2023-01-04T18:00:08.939Z,99840.78
2023-01-04T18:02:42.439Z,99851.00
2023-01-04T18:05:14.561Z,99859.78
2023-01-04T18:07:46.522Z,99837.97
2023-01-04T18:10:33.041Z,99831.41
2023-01-04T18:13:10.431Z,99825.78
2023-01-04T18:15:54.979Z,99817.50
2023-01-04T18:18:35.201Z,99824.69
2023-01-04T18:21:28.516Z,99827.34
2023-01-04T18:27:20.982Z,99780.56
2023-01-04T18:29:47.187Z,99772.03
2023-01-04T18:32:19.302Z,99774.75
2023-01-04T18:34:51.334Z,99761.22
2023-01-04T18:37:23.311Z,99780.88
2023-01-04T18:39:55.243Z,99776.06
2023-01-04T18:42:27.116Z,99753.91
2023-01-04T18:44:59.156Z,99739.00
2023-01-04T18:47:31.994Z,99762.69
2023-01-04T18:50:04.011Z,99744.28
2023-01-04T18:52:37.310Z,99734.03
2023-01-04T18:55:10.806Z,99713.44
2023-01-04T18:57:42.775Z,99731.59
2023-01-04T19:00:14.896Z,99718.53
2023-01-04T19:02:46.951Z,99737.59
2023-01-04T19:05:19.672Z,99714.72
2023-01-04T19:07:51.852Z,99719.59
2023-01-04T19:10:23.821Z,99717.53
2023-01-04T19:12:55.784Z,99702.31
2023-01-04T19:15:27.710Z,99713.63
2023-01-04T19:17:59.655Z,99704.91
2023-01-04T19:20:31.681Z,99691.25
2023-01-04T19:23:03.608Z,99682.94
2023-01-04T19:25:38.208Z,99613.81
2023-01-04T19:28:11.656Z,99688.09
2023-01-04T19:30:43.886Z,99686.44
2023-01-04T19:33:16.023Z,99671.63
2023-01-04T19:35:48.024Z,99647.47
2023-01-04T19:38:20.011Z,99629.91
2023-01-04T19:40:59.889Z,99655.88
2023-01-04T19:43:32.156Z,99633.28
2023-01-04T19:46:09.115Z,99639.78
2023-01-04T19:48:41.313Z,99595.50
2023-01-04T19:51:17.546Z,99639.56
2023-01-04T19:53:49.494Z,99632.16
2023-01-04T19:56:21.496Z,99636.16
2023-01-04T19:58:53.448Z,99620.06
2023-01-04T20:01:25.619Z,99625.50
2023-01-04T20:03:57.689Z,99604.19
2023-01-04T20:06:29.953Z,99616.59
2023-01-04T20:09:02.167Z,99632.97
2023-01-04T20:11:34.158Z,99606.75
2023-01-04T20:14:06.277Z,99617.41
2023-01-04T20:16:38.254Z,99596.56
2023-01-04T20:19:10.256Z,99587.44
2023-01-04T20:21:42.260Z,99584.88
2023-01-04T20:24:14.283Z,99583.41
2023-01-04T20:26:46.932Z,99580.72
2023-01-04T20:29:18.900Z,99570.94
2023-01-04T20:31:50.948Z,99574.50
2023-01-04T20:34:22.895Z,99578.53
2023-01-04T20:36:54.859Z,99567.25
2023-01-04T20:39:26.717Z,99556.66
2023-01-04T20:42:17.155Z,99551.50
2023-01-04T20:44:49.005Z,99587.53
2023-01-04T20:47:21.189Z,99574.22
2023-01-04T20:49:53.143Z,99570.25
2023-01-04T20:52:25.052Z,99555.75
2023-01-04T20:54:57.007Z,99545.34
2023-01-04T20:57:28.954Z,99542.41
2023-01-04T21:00:00.795Z,99523.66
2023-01-04T21:02:37.891Z,99523.28
2023-01-04T21:05:10.768Z,99539.44
2023-01-04T21:07:42.664Z,99535.03
2023-01-04T21:10:14.627Z,99539.41
2023-01-04T21:12:47.244Z,99535.38
2023-01-04T21:15:19.211Z,99523.34
2023-01-04T21:17:51.285Z,99528.66
2023-01-04T21:20:24.752Z,99520.03
2023-01-04T21:22:56.741Z,99517.06
2023-01-04T21:25:28.705Z,99506.13
2023-01-04T21:28:02.686Z,99493.75
2023-01-04T21:30:35.043Z,99519.19
2023-01-04T21:33:07.387Z,99506.56
2023-01-04T21:35:40.712Z,99501.78
2023-01-04T21:38:12.948Z,99497.13
2023-01-04T21:40:44.838Z,99456.22
2023-01-04T21:43:18.087Z,99476.84
2023-01-04T21:45:50.007Z,99486.47
2023-01-04T21:48:21.956Z,99485.75
2023-01-04T21:50:55.282Z,99466.78
2023-01-04T21:53:29.978Z,99454.44
2023-01-04T21:56:10.281Z,99467.09
2023-01-04T21:58:43.134Z,99455.56
2023-01-04T22:01:21.758Z,99451.22
2023-01-04T22:03:54.083Z,99458.75
2023-01-04T22:06:26.188Z,99440.09
2023-01-04T22:08:58.990Z,99454.97
2023-01-04T22:11:30.939Z,99450.19
2023-01-04T22:14:03.554Z,99463.94
2023-01-04T22:16:35.525Z,99445.56
2023-01-04T22:19:07.490Z,99435.88
2023-01-04T22:21:39.694Z,99433.31
2023-01-04T22:24:12.977Z,99434.03
2023-01-04T22:26:45.575Z,99433.34
2023-01-04T22:29:17.734Z,99424.88
2023-01-04T22:31:49.756Z,99418.50
2023-01-04T22:34:22.001Z,99405.69
2023-01-04T22:36:53.893Z,99403.72
2023-01-04T22:39:26.067Z,99397.03
2023-01-04T22:41:57.982Z,99397.66
2023-01-04T22:44:29.912Z,99381.69
2023-01-04T22:47:02.057Z,99373.94
2023-01-04T22:49:34.059Z,99361.28
2023-01-04T22:52:06.043Z,99352.00
2023-01-04T22:54:38.023Z,99361.59
2023-01-04T22:57:09.975Z,99359.41
2023-01-04T22:59:41.949Z,99357.56
2023-01-04T23:02:13.923Z,99351.47
2023-01-04T23:04:45.842Z,99324.16
2023-01-04T23:07:17.838Z,99334.66
2023-01-04T23:09:49.749Z,99337.22
2023-01-04T23:12:21.687Z,99318.78
2023-01-04T23:14:53.645Z,99301.38
2023-01-04T23:17:25.646Z,99291.03
2023-01-04T23:19:57.918Z,99319.28
2023-01-04T23:22:29.971Z,99297.97
2023-01-04T23:25:02.114Z,99295.78
2023-01-04T23:27:34.023Z,99295.25
2023-01-04T23:30:06.459Z,99286.91
2023-01-04T23:32:38.372Z,99279.91
2023-01-04T23:35:10.543Z,99262.53
2023-01-04T23:37:42.482Z,99250.06
2023-01-04T23:40:14.988Z,99266.38
2023-01-04T23:42:47.249Z,99281.09
2023-01-04T23:45:19.457Z,99282.75
2023-01-04T23:47:51.421Z,99233.38
2023-01-04T23:50:23.426Z,99227.69
2023-01-04T23:52:55.387Z,99230.38
2023-01-04T23:55:27.482Z,99253.44
2023-01-04T23:57:59.468Z,99240.31
